createdAt,value
2018-12-16T00:04:04.618Z,2.70
2018-12-16T00:06:36.868Z,2.75
2018-12-16T00:09:07.884Z,2.69
2018-12-16T00:11:37.800Z,2.77
2018-12-16T00:14:07.813Z,2.86
2018-12-16T00:16:37.718Z,2.76
2018-12-16T00:19:08.745Z,2.72
2018-12-16T00:21:38.782Z,2.76
2018-12-16T00:24:09.901Z,2.71
2018-12-16T00:26:57.692Z,2.73
2018-12-16T00:29:27.640Z,2.82
2018-12-16T00:31:57.704Z,2.76
2018-12-16T00:34:27.640Z,2.69
2018-12-16T00:36:57.552Z,2.67
2018-12-16T00:39:27.498Z,2.74
2018-12-16T00:41:57.565Z,2.84
2018-12-16T00:44:27.513Z,2.86
2018-12-16T00:46:57.434Z,2.87
2018-12-16T00:49:27.565Z,2.82
2018-12-16T00:51:57.488Z,2.90
2018-12-16T00:54:27.429Z,2.85
2018-12-16T00:56:58.344Z,2.94
2018-12-16T00:59:28.293Z,3.05
2018-12-16T01:01:58.321Z,2.99
2018-12-16T01:04:28.434Z,2.99
2018-12-16T01:06:58.480Z,3.14
2018-12-16T01:09:28.492Z,3.23
2018-12-16T01:11:58.484Z,3.05
2018-12-16T01:14:28.502Z,2.92
2018-12-16T01:16:58.498Z,3.08
2018-12-16T01:19:28.500Z,3.17
2018-12-16T01:21:58.508Z,3.05
2018-12-16T01:24:28.508Z,3.04
2018-12-16T01:26:58.459Z,3.09
2018-12-16T01:29:28.498Z,3.03
2018-12-16T01:31:58.449Z,3.13
2018-12-16T01:34:28.441Z,2.98
2018-12-16T01:36:58.428Z,2.97
2018-12-16T01:39:28.371Z,2.97
2018-12-16T01:41:58.490Z,3.05
2018-12-16T01:44:28.474Z,2.88
2018-12-16T01:46:58.552Z,3.11
2018-12-16T01:49:28.836Z,3.10
2018-12-16T01:51:58.956Z,3.03
2018-12-16T01:54:28.906Z,3.01
2018-12-16T01:56:58.825Z,3.01
2018-12-16T01:59:28.778Z,3.05
2018-12-16T02:01:58.705Z,3.17
2018-12-16T02:04:28.828Z,3.25
2018-12-16T02:06:58.841Z,3.23
2018-12-16T02:09:28.864Z,3.18
2018-12-16T02:11:58.794Z,3.19
2018-12-16T02:14:28.889Z,3.05
2018-12-16T02:16:58.913Z,3.18
2018-12-16T02:19:28.851Z,3.29
2018-12-16T02:21:58.775Z,3.17
2018-12-16T02:24:28.877Z,3.19
2018-12-16T02:26:58.798Z,3.15
2018-12-16T02:29:28.732Z,3.18
2018-12-16T02:31:58.639Z,3.21
2018-12-16T02:34:28.550Z,3.14
2018-12-16T02:36:58.517Z,3.17
2018-12-16T02:39:28.499Z,3.22
2018-12-16T02:41:58.504Z,3.22
2018-12-16T02:44:28.420Z,3.13
2018-12-16T02:46:58.413Z,3.11
2018-12-16T02:49:28.341Z,3.10
2018-12-16T02:51:58.367Z,3.04
2018-12-16T02:54:28.338Z,3.10
2018-12-16T02:56:58.321Z,3.07
2018-12-16T02:59:28.317Z,3.07
2018-12-16T03:01:58.308Z,3.13
2018-12-16T03:04:28.272Z,3.16
2018-12-16T03:07:01.692Z,3.05
2018-12-16T03:09:31.617Z,3.10
2018-12-16T03:12:01.669Z,3.12
2018-12-16T03:14:31.755Z,3.07
2018-12-16T03:17:01.952Z,3.02
2018-12-16T03:19:31.867Z,2.96
2018-12-16T03:22:01.821Z,3.09
2018-12-16T03:24:31.829Z,3.13
2018-12-16T03:27:02.105Z,3.21
2018-12-16T03:29:32.096Z,3.19
2018-12-16T03:32:02.024Z,3.22
2018-12-16T03:37:16.190Z,3.16
2018-12-16T03:39:46.100Z,3.31
2018-12-16T03:42:16.018Z,3.19
2018-12-16T03:44:46.532Z,3.22
2018-12-16T03:47:16.516Z,3.11
2018-12-16T03:49:46.606Z,3.08
2018-12-16T03:52:16.507Z,3.18
2018-12-16T03:54:46.497Z,3.14
2018-12-16T03:57:16.429Z,3.16
2018-12-16T03:59:46.405Z,3.26
2018-12-16T04:02:16.594Z,3.33
2018-12-16T04:04:46.586Z,3.20
2018-12-16T04:07:16.566Z,3.27
2018-12-16T04:09:46.577Z,3.30
2018-12-16T04:12:16.792Z,3.31
2018-12-16T04:14:46.746Z,3.21
2018-12-16T04:17:16.670Z,3.18
2018-12-16T04:19:46.585Z,3.13
2018-12-16T04:22:16.525Z,2.98
2018-12-16T04:24:46.436Z,3.13
2018-12-16T04:27:16.339Z,3.13
2018-12-16T04:29:48.757Z,3.11
2018-12-16T04:32:18.660Z,3.09
2018-12-16T04:34:48.656Z,3.09
2018-12-16T04:37:18.606Z,3.09
2018-12-16T04:39:48.593Z,3.03
2018-12-16T04:42:18.653Z,3.02
2018-12-16T04:44:48.736Z,2.94
2018-12-16T04:47:18.680Z,2.95
2018-12-16T04:49:48.597Z,3.01
2018-12-16T04:52:18.505Z,2.90
2018-12-16T04:54:48.486Z,3.00
2018-12-16T04:57:18.398Z,2.93
2018-12-16T04:59:54.647Z,3.00
2018-12-16T05:02:24.526Z,3.12
2018-12-16T05:04:54.453Z,3.07
2018-12-16T05:07:24.423Z,3.08
2018-12-16T05:15:12.620Z,3.07
2018-12-16T05:17:42.538Z,3.08
2018-12-16T05:20:12.497Z,3.10
2018-12-16T05:22:42.531Z,3.09
2018-12-16T05:25:12.511Z,3.22
2018-12-16T05:27:42.475Z,3.35
2018-12-16T05:30:12.605Z,3.27
2018-12-16T05:32:42.524Z,3.16
2018-12-16T05:35:12.538Z,3.16
2018-12-16T05:37:42.515Z,3.25
2018-12-16T05:40:12.565Z,3.29
2018-12-16T05:42:42.491Z,3.31
2018-12-16T05:45:12.384Z,3.28
2018-12-16T05:47:42.328Z,3.24
2018-12-16T05:50:12.588Z,3.19
2018-12-16T05:52:42.489Z,3.23
2018-12-16T05:55:12.570Z,3.34
2018-12-16T05:57:42.499Z,3.39
2018-12-16T06:00:12.833Z,3.44
2018-12-16T06:02:42.746Z,3.34
2018-12-16T06:05:12.851Z,3.36
2018-12-16T06:07:42.765Z,3.26
2018-12-16T06:10:12.704Z,3.20
2018-12-16T06:12:43.292Z,3.24
2018-12-16T06:15:13.572Z,3.21
2018-12-16T06:17:43.636Z,3.29
2018-12-16T06:20:13.717Z,3.32
2018-12-16T06:22:43.901Z,3.43
2018-12-16T06:25:14.858Z,3.34
2018-12-16T06:27:44.752Z,3.33
2018-12-16T06:30:16.591Z,3.33
2018-12-16T06:32:46.496Z,3.34
2018-12-16T06:35:16.407Z,3.30
2018-12-16T06:37:47.322Z,3.28
2018-12-16T06:40:17.312Z,3.31
2018-12-16T06:42:47.328Z,3.32
2018-12-16T06:45:17.267Z,3.35
2018-12-16T06:47:47.344Z,3.23
2018-12-16T06:50:17.275Z,3.16
2018-12-16T06:52:47.325Z,3.16
2018-12-16T06:55:17.348Z,3.26
2018-12-16T06:57:47.945Z,3.19
2018-12-16T07:00:18.980Z,3.24
2018-12-16T07:05:39.677Z,3.19
2018-12-16T07:08:09.657Z,3.30
2018-12-16T07:10:40.693Z,3.47
2018-12-16T07:16:17.598Z,3.50
2018-12-16T07:18:47.908Z,3.41
2018-12-16T07:21:17.995Z,3.50
2018-12-16T07:23:47.904Z,3.61
2018-12-16T07:26:17.917Z,3.76
2018-12-16T07:28:47.945Z,3.62
2018-12-16T07:31:17.985Z,3.68
2018-12-16T07:33:48.077Z,3.80
2018-12-16T07:36:18.260Z,3.70
2018-12-16T07:38:48.237Z,3.74
2018-12-16T07:41:18.236Z,3.76
2018-12-16T07:43:48.216Z,3.88
2018-12-16T07:46:18.284Z,3.89
2018-12-16T07:48:48.418Z,3.97
2018-12-16T07:51:18.469Z,4.00
2018-12-16T07:53:48.385Z,4.04
2018-12-16T07:56:18.304Z,4.13
2018-12-16T07:58:48.240Z,4.09
2018-12-16T08:01:18.168Z,4.16
2018-12-16T08:03:48.159Z,4.08
2018-12-16T08:06:18.435Z,4.13
2018-12-16T08:08:48.335Z,4.14
2018-12-16T08:11:18.264Z,4.26
2018-12-16T08:13:48.414Z,4.25
2018-12-16T08:16:18.377Z,4.26
2018-12-16T08:18:48.475Z,4.27
2018-12-16T08:21:18.573Z,4.23
2018-12-16T08:23:48.554Z,4.29
2018-12-16T08:26:18.672Z,4.33
2018-12-16T08:28:50.608Z,4.28
2018-12-16T08:31:22.605Z,4.41
2018-12-16T08:33:52.679Z,4.43
2018-12-16T08:36:22.636Z,4.42
2018-12-16T08:38:52.559Z,4.52
2018-12-16T08:41:22.479Z,4.46
2018-12-16T08:43:53.496Z,4.43
2018-12-16T08:46:23.456Z,4.52
2018-12-16T08:48:53.407Z,4.60
2018-12-16T08:51:23.385Z,4.63
2018-12-16T08:53:53.313Z,4.71
2018-12-16T08:56:23.429Z,4.66
2018-12-16T08:58:55.436Z,4.69
2018-12-16T09:01:25.467Z,4.78
2018-12-16T09:03:55.853Z,4.87
2018-12-16T09:06:26.828Z,4.84
2018-12-16T09:08:57.306Z,4.99
2018-12-16T09:11:27.343Z,5.01
2018-12-16T09:13:59.259Z,4.88
2018-12-16T09:16:32.653Z,5.04
2018-12-16T09:19:02.636Z,5.14
2018-12-16T09:21:32.593Z,5.00
2018-12-16T09:24:02.746Z,5.20
2018-12-16T09:26:32.662Z,5.37
2018-12-16T09:29:02.795Z,5.34
2018-12-16T09:31:32.760Z,5.44
2018-12-16T09:34:02.773Z,5.51
2018-12-16T09:36:32.782Z,5.48
2018-12-16T09:39:02.787Z,5.58
2018-12-16T09:41:33.836Z,5.53
2018-12-16T09:44:04.186Z,5.52
2018-12-16T09:46:34.100Z,5.56
2018-12-16T09:49:06.044Z,5.66
2018-12-16T09:51:35.956Z,5.80
2018-12-16T09:54:06.087Z,5.91
2018-12-16T09:56:36.001Z,5.94
2018-12-16T09:59:06.174Z,6.02
2018-12-16T10:01:36.160Z,5.99
2018-12-16T10:04:06.184Z,6.01
2018-12-16T10:06:36.169Z,6.00
2018-12-16T10:09:09.156Z,6.07
2018-12-16T10:11:39.119Z,5.99
2018-12-16T10:14:09.061Z,6.01
2018-12-16T10:16:39.163Z,5.98
2018-12-16T10:19:09.244Z,5.95
2018-12-16T10:21:39.245Z,6.08
2018-12-16T10:24:09.177Z,6.00
2018-12-16T10:26:39.361Z,6.10
2018-12-16T10:29:09.283Z,6.23
2018-12-16T10:31:39.197Z,6.32
2018-12-16T10:34:12.913Z,6.45
2018-12-16T10:36:42.821Z,6.60
2018-12-16T10:39:12.740Z,6.71
2018-12-16T10:41:42.851Z,6.84
2018-12-16T10:44:12.784Z,6.87
2018-12-16T10:46:42.701Z,6.94
2018-12-16T10:49:12.768Z,7.13
2018-12-16T10:51:42.704Z,7.20
2018-12-16T10:54:12.650Z,7.20
2018-12-16T10:56:42.557Z,7.32
2018-12-16T10:59:12.569Z,7.37
2018-12-16T11:01:42.567Z,7.31
2018-12-16T11:04:12.611Z,7.36
2018-12-16T11:06:42.704Z,7.33
2018-12-16T11:09:12.665Z,7.47
2018-12-16T11:11:42.621Z,7.51
2018-12-16T11:14:14.103Z,7.55
2018-12-16T11:16:45.232Z,7.61
2018-12-16T11:19:15.163Z,7.68
2018-12-16T11:21:45.290Z,7.72
2018-12-16T11:24:15.301Z,7.81
2018-12-16T11:26:45.208Z,7.89
2018-12-16T11:29:15.141Z,8.00
2018-12-16T11:31:45.237Z,8.03
2018-12-16T11:34:15.521Z,8.11
2018-12-16T11:36:46.732Z,8.02
2018-12-16T11:39:16.923Z,8.03
2018-12-16T11:41:46.972Z,8.12
2018-12-16T11:44:16.888Z,8.04
2018-12-16T11:46:46.833Z,8.07
2018-12-16T11:49:16.921Z,8.12
2018-12-16T11:51:47.211Z,8.05
2018-12-16T11:54:17.273Z,8.11
2018-12-16T11:56:47.214Z,8.00
2018-12-16T11:59:17.176Z,8.02
2018-12-16T12:01:48.239Z,8.08
2018-12-16T12:04:21.395Z,8.08
2018-12-16T12:06:51.393Z,8.19
2018-12-16T12:09:21.321Z,8.17
2018-12-16T12:11:51.475Z,8.16
2018-12-16T12:14:21.949Z,8.21
2018-12-16T12:16:51.933Z,8.17
2018-12-16T12:19:21.917Z,8.11
2018-12-16T12:21:51.883Z,8.17
2018-12-16T12:24:21.847Z,8.14
2018-12-16T12:26:52.096Z,8.07
2018-12-16T12:29:22.215Z,8.13
2018-12-16T12:31:52.253Z,8.14
2018-12-16T12:34:23.833Z,8.13
2018-12-16T12:36:53.963Z,8.05
2018-12-16T12:39:23.901Z,7.83
2018-12-16T12:41:53.848Z,7.75
2018-12-16T12:44:23.751Z,7.63
2018-12-16T12:46:53.691Z,7.52
2018-12-16T12:49:23.720Z,7.25
2018-12-16T12:51:53.713Z,7.19
2018-12-16T12:54:23.860Z,6.92
2018-12-16T12:56:53.953Z,6.59
2018-12-16T12:59:23.881Z,6.67
2018-12-16T13:01:53.875Z,6.65
2018-12-16T13:04:23.865Z,6.63
2018-12-16T13:06:53.810Z,6.66
2018-12-16T13:09:23.899Z,6.73
2018-12-16T13:11:53.959Z,6.83
2018-12-16T13:14:23.937Z,6.79
2018-12-16T13:16:53.884Z,6.75
2018-12-16T13:19:23.904Z,6.82
2018-12-16T13:21:53.911Z,6.80
2018-12-16T13:24:23.821Z,6.74
2018-12-16T13:26:53.930Z,6.76
2018-12-16T13:29:24.029Z,6.72
2018-12-16T13:31:54.067Z,6.62
2018-12-16T13:34:23.969Z,6.67
2018-12-16T13:36:53.988Z,6.69
2018-12-16T13:39:23.932Z,6.67
2018-12-16T13:41:53.855Z,6.64
2018-12-16T13:44:23.820Z,6.63
2018-12-16T13:46:53.887Z,6.49
2018-12-16T13:49:23.853Z,6.35
2018-12-16T13:51:53.890Z,6.58
2018-12-16T13:54:23.802Z,6.42
2018-12-16T13:56:54.019Z,6.41
2018-12-16T13:59:23.928Z,6.36
2018-12-16T14:01:53.869Z,6.48
2018-12-16T14:04:23.828Z,6.45
2018-12-16T14:06:53.932Z,6.52
2018-12-16T14:09:23.993Z,6.21
2018-12-16T14:11:54.207Z,6.44
2018-12-16T14:14:24.157Z,6.47
2018-12-16T14:16:54.260Z,6.60
2018-12-16T14:19:24.189Z,6.64
2018-12-16T14:21:54.209Z,6.75
2018-12-16T14:24:24.211Z,6.78
2018-12-16T14:26:54.148Z,6.81
2018-12-16T14:29:24.220Z,6.97
2018-12-16T14:31:54.313Z,7.09
2018-12-16T14:34:24.228Z,7.07
2018-12-16T14:36:54.218Z,7.15
2018-12-16T14:39:24.195Z,7.12
2018-12-16T14:41:54.334Z,6.98
2018-12-16T14:44:24.372Z,6.77
2018-12-16T14:46:54.386Z,6.70
2018-12-16T14:49:24.319Z,6.79
2018-12-16T14:51:54.679Z,6.79
2018-12-16T14:54:24.628Z,6.77
2018-12-16T14:56:54.572Z,6.94
2018-12-16T14:59:55.592Z,6.98
2018-12-16T15:02:25.536Z,6.70
2018-12-16T15:04:55.441Z,6.87
2018-12-16T15:07:25.400Z,6.93
2018-12-16T15:09:55.344Z,6.93
2018-12-16T15:12:25.336Z,6.89
2018-12-16T15:14:55.426Z,6.98
2018-12-16T15:17:25.532Z,7.09
2018-12-16T15:19:55.441Z,7.08
2018-12-16T15:22:25.380Z,7.04
2018-12-16T15:24:55.301Z,6.92
2018-12-16T15:27:25.301Z,6.90
2018-12-16T15:29:55.213Z,7.02
2018-12-16T15:32:25.292Z,7.05
2018-12-16T15:34:55.226Z,6.97
2018-12-16T15:37:25.228Z,6.97
2018-12-16T15:39:55.144Z,6.99
2018-12-16T15:42:25.080Z,7.15
2018-12-16T15:44:55.063Z,7.03
2018-12-16T15:47:25.057Z,7.01
2018-12-16T15:49:54.960Z,7.12
2018-12-16T15:52:24.979Z,7.11
2018-12-16T15:54:54.892Z,7.17
2018-12-16T15:57:24.845Z,7.22
2018-12-16T15:59:54.832Z,7.23
2018-12-16T16:02:24.969Z,7.23
2018-12-16T16:07:42.026Z,7.15
2018-12-16T16:10:12.451Z,7.19
2018-12-16T16:12:42.431Z,7.27
2018-12-16T16:15:12.443Z,7.32
2018-12-16T16:17:47.001Z,7.26
2018-12-16T16:23:03.463Z,7.33
2018-12-16T16:25:33.551Z,7.36
2018-12-16T16:28:03.501Z,7.47
2018-12-16T16:30:33.464Z,7.44
2018-12-16T16:33:03.411Z,7.45
2018-12-16T16:35:33.784Z,7.43
2018-12-16T16:38:04.156Z,7.28
2018-12-16T16:40:34.327Z,7.23
2018-12-16T16:43:04.335Z,7.28
2018-12-16T16:45:34.287Z,7.24
2018-12-16T16:48:04.252Z,7.15
2018-12-16T16:50:34.313Z,7.10
2018-12-16T16:53:04.263Z,7.09
2018-12-16T16:55:34.165Z,7.04
2018-12-16T16:58:04.279Z,7.15
2018-12-16T17:00:34.284Z,7.22
2018-12-16T17:03:04.241Z,7.10
2018-12-16T17:05:34.215Z,7.13
2018-12-16T17:08:04.358Z,7.12
2018-12-16T17:10:34.394Z,7.08
2018-12-16T17:13:04.569Z,7.10
2018-12-16T17:15:34.765Z,7.07
2018-12-16T17:18:04.975Z,7.04
2018-12-16T17:20:34.980Z,7.07
2018-12-16T17:23:05.075Z,7.06
2018-12-16T17:25:35.025Z,7.06
2018-12-16T17:28:05.028Z,6.93
2018-12-16T17:30:35.145Z,6.91
2018-12-16T17:33:05.228Z,7.04
2018-12-16T17:35:35.144Z,6.94
2018-12-16T17:38:05.168Z,7.00
2018-12-16T17:40:35.102Z,6.92
2018-12-16T17:43:05.397Z,6.92
2018-12-16T17:45:35.514Z,6.80
2018-12-16T17:48:05.977Z,6.90
2018-12-16T17:50:35.959Z,6.88
2018-12-16T17:53:05.997Z,6.79
2018-12-16T17:55:35.891Z,6.76
2018-12-16T17:58:06.039Z,6.71
2018-12-16T18:00:36.161Z,6.56
2018-12-16T18:03:06.156Z,6.27
2018-12-16T18:05:36.048Z,6.10
2018-12-16T18:08:06.085Z,6.23
2018-12-16T18:10:36.147Z,6.16
2018-12-16T18:13:06.247Z,6.25
2018-12-16T18:15:37.174Z,6.36
2018-12-16T18:18:07.123Z,6.47
2018-12-16T18:20:37.126Z,6.43
2018-12-16T18:23:07.241Z,6.47
2018-12-16T18:25:37.223Z,6.43
2018-12-16T18:28:07.244Z,6.16
2018-12-16T18:30:37.220Z,6.08
2018-12-16T18:33:07.183Z,6.18
2018-12-16T18:35:37.231Z,6.19
2018-12-16T18:38:07.257Z,6.23
2018-12-16T18:40:37.404Z,6.32
2018-12-16T18:43:07.394Z,6.41
2018-12-16T18:48:19.609Z,6.32
2018-12-16T18:50:49.587Z,6.09
2018-12-16T18:53:19.834Z,6.13
2018-12-16T18:55:49.878Z,6.22
2018-12-16T18:58:19.894Z,6.11
2018-12-16T19:00:50.052Z,5.98
2018-12-16T19:03:20.016Z,6.03
2018-12-16T19:05:49.912Z,6.15
2018-12-16T19:08:20.027Z,6.07
2018-12-16T19:10:49.965Z,6.16
2018-12-16T19:13:19.901Z,6.12
2018-12-16T19:15:50.308Z,6.03
2018-12-16T19:18:20.780Z,6.10
2018-12-16T19:20:50.700Z,6.11
2018-12-16T19:23:20.715Z,6.09
2018-12-16T19:25:50.755Z,6.11
2018-12-16T19:28:20.686Z,6.15
2018-12-16T19:30:50.729Z,5.96
2018-12-16T19:33:20.668Z,6.00
2018-12-16T19:35:50.628Z,6.13
2018-12-16T19:38:20.555Z,6.05
2018-12-16T19:40:50.596Z,6.03
2018-12-16T19:43:20.592Z,6.05
2018-12-16T19:45:50.551Z,5.96
2018-12-16T19:48:20.484Z,6.12
2018-12-16T19:50:50.424Z,6.11
2018-12-16T19:53:20.412Z,5.79
2018-12-16T19:55:50.391Z,5.84
2018-12-16T19:58:20.793Z,6.00
2018-12-16T20:00:50.744Z,6.14
2018-12-16T20:03:20.681Z,6.10
2018-12-16T20:05:55.837Z,6.08
2018-12-16T20:08:25.768Z,6.17
2018-12-16T20:10:55.684Z,6.19
2018-12-16T20:13:25.609Z,6.22
2018-12-16T20:16:01.381Z,6.26
2018-12-16T20:18:27.584Z,6.31
2018-12-16T20:20:57.479Z,6.25
2018-12-16T20:23:27.495Z,6.26
2018-12-16T20:25:57.665Z,6.32
2018-12-16T20:28:27.600Z,6.40
2018-12-16T20:30:57.497Z,6.49
2018-12-16T20:33:27.456Z,6.51
2018-12-16T20:35:57.495Z,6.29
2018-12-16T20:38:27.719Z,6.45
2018-12-16T20:40:58.139Z,6.47
2018-12-16T20:43:28.076Z,6.43
2018-12-16T20:45:58.056Z,6.37
2018-12-16T20:48:28.056Z,6.46
2018-12-16T20:50:58.101Z,6.41
2018-12-16T20:53:28.024Z,6.37
2018-12-16T20:55:57.991Z,6.26
2018-12-16T20:58:27.904Z,6.38
2018-12-16T21:00:57.820Z,6.28
2018-12-16T21:03:27.750Z,6.10
2018-12-16T21:05:57.747Z,6.20
2018-12-16T21:08:27.702Z,6.12
2018-12-16T21:13:56.104Z,6.04
2018-12-16T21:17:29.033Z,6.15
2018-12-16T21:19:58.954Z,5.99
2018-12-16T21:22:28.852Z,6.08
2018-12-16T21:24:58.917Z,6.04
2018-12-16T21:27:29.026Z,6.13
2018-12-16T21:29:59.105Z,6.10
2018-12-16T21:32:29.097Z,6.17
2018-12-16T21:34:59.020Z,6.16
2018-12-16T21:37:29.086Z,6.18
2018-12-16T21:39:59.000Z,6.01
2018-12-16T21:42:28.972Z,6.00
2018-12-16T21:44:58.985Z,5.90
2018-12-16T21:47:28.900Z,6.00
2018-12-16T21:49:58.816Z,6.03
2018-12-16T21:52:28.713Z,6.14
2018-12-16T21:54:58.644Z,6.18
2018-12-16T21:57:33.097Z,6.19
2018-12-16T22:00:00.586Z,6.21
2018-12-16T22:02:30.544Z,6.16
2018-12-16T22:05:00.465Z,6.12
2018-12-16T22:07:30.368Z,6.19
2018-12-16T22:10:00.367Z,6.13
2018-12-16T22:12:30.374Z,6.18
2018-12-16T22:15:00.369Z,6.23
2018-12-16T22:17:30.272Z,6.19
2018-12-16T22:20:00.189Z,6.20
2018-12-16T22:22:30.179Z,6.25
2018-12-16T22:25:00.197Z,6.17
2018-12-16T22:27:30.095Z,6.16
2018-12-16T22:30:00.004Z,6.17
2018-12-16T22:32:29.900Z,6.18
2018-12-16T22:34:59.831Z,6.15
2018-12-16T22:37:29.952Z,6.25
2018-12-16T22:39:59.868Z,6.35
2018-12-16T22:42:29.892Z,6.35
2018-12-16T22:44:59.817Z,6.39
2018-12-16T22:47:29.800Z,6.47
2018-12-16T22:49:59.894Z,6.49
2018-12-16T22:52:29.836Z,6.35
2018-12-16T22:54:59.819Z,6.37
2018-12-16T22:57:29.751Z,6.37
2018-12-16T22:59:59.709Z,6.31
2018-12-16T23:02:29.644Z,6.22
2018-12-16T23:04:59.540Z,6.28
2018-12-16T23:07:29.455Z,6.41
2018-12-16T23:09:59.356Z,6.33
2018-12-16T23:12:33.573Z,6.37
2018-12-16T23:15:03.629Z,6.59
2018-12-16T23:17:33.615Z,6.40
2018-12-16T23:20:08.992Z,6.25
2018-12-16T23:22:39.862Z,6.30
2018-12-16T23:25:10.235Z,6.19
2018-12-16T23:27:40.153Z,6.28
2018-12-16T23:30:10.271Z,6.25
2018-12-16T23:32:40.260Z,6.34
2018-12-16T23:35:10.251Z,6.16
2018-12-16T23:37:40.183Z,6.02
2018-12-16T23:40:10.236Z,5.99
2018-12-16T23:42:40.360Z,6.00
2018-12-16T23:45:10.737Z,6.07
2018-12-16T23:47:40.776Z,6.13
2018-12-16T23:50:10.825Z,6.13
2018-12-16T23:52:40.745Z,6.10
2018-12-16T23:55:10.789Z,6.14
2018-12-16T23:57:40.813Z,6.03
